AAL1332 KDEN-KLAX
Flight info
| Callsign | AAL1332 |
|---|---|
| Flight time | 2h 13m |
| Altitude | 38000 |
| Route | BAYLR6 TEHRU JASSE Q90 DNERO ANJLL4 |
| Aircraft | A20N/M-SDE2E3FGHIRWXY/LB1 |
Departure
| Time | 2026-04-23 22:26 |
|---|---|
| Airport | Denver International Airport (KDEN) |
Arrival
| Time | 2026-04-24 00:39 |
|---|---|
| Airport | Los Angeles International Airport (KLAX) |
| Time | Latitude | Longitude | Altitude | Speed | Heading |
|---|---|---|---|---|---|
| 2026-04-23 21:44 | 39.86266 | -104.67629 | 5374 ft | 0 kts | 8° |
| 2026-04-23 22:13 | 39.86265 | -104.67629 | 5374 ft | 2 kts | 8° |
| 2026-04-23 22:13 | 39.86250 | -104.67632 | 5369 ft | 2 kts | 4° |
| 2026-04-23 22:13 | 39.86236 | -104.67633 | 5371 ft | 2 kts | 4° |
| 2026-04-23 22:13 | 39.86221 | -104.67634 | 5371 ft | 2 kts | 4° |
| 2026-04-23 22:14 | 39.86206 | -104.67636 | 5370 ft | 2 kts | 4° |
| 2026-04-23 22:14 | 39.86203 | -104.67636 | 5370 ft | 0 kts | 4° |
| 2026-04-23 22:17 | 39.86204 | -104.67637 | 5370 ft | 0 kts | 0° |
| 2026-04-23 22:17 | 39.86205 | -104.67640 | 5370 ft | 1 kts | 327° |
| 2026-04-23 22:17 | 39.86204 | -104.67652 | 5368 ft | 4 kts | 270° |
| 2026-04-23 22:18 | 39.86197 | -104.67730 | 5371 ft | 11 kts | 253° |
| 2026-04-23 22:18 | 39.86149 | -104.67799 | 5373 ft | 13 kts | 229° |
| 2026-04-23 22:18 | 39.86137 | -104.67925 | 5368 ft | 17 kts | 271° |
| 2026-04-23 22:18 | 39.86138 | -104.68071 | 5366 ft | 19 kts | 270° |
| 2026-04-23 22:19 | 39.86136 | -104.68180 | 5367 ft | 11 kts | 269° |
| 2026-04-23 22:19 | 39.86138 | -104.68314 | 5367 ft | 14 kts | 269° |
| 2026-04-23 22:19 | 39.86140 | -104.68445 | 5364 ft | 12 kts | 267° |
| 2026-04-23 22:19 | 39.86064 | -104.68511 | 5364 ft | 18 kts | 178° |
| 2026-04-23 22:20 | 39.85912 | -104.68511 | 5364 ft | 25 kts | 181° |
| 2026-04-23 22:20 | 39.85775 | -104.68511 | 5366 ft | 9 kts | 180° |
| 2026-04-23 22:20 | 39.85750 | -104.68512 | 5365 ft | 11 kts | 182° |
| 2026-04-23 22:20 | 39.85649 | -104.68515 | 5368 ft | 18 kts | 180° |
| 2026-04-23 22:21 | 39.85502 | -104.68514 | 5371 ft | 24 kts | 181° |
| 2026-04-23 22:21 | 39.85315 | -104.68521 | 5373 ft | 29 kts | 184° |
| 2026-04-23 22:21 | 39.85205 | -104.68671 | 5368 ft | 27 kts | 268° |
| 2026-04-23 22:21 | 39.85199 | -104.68840 | 5360 ft | 15 kts | 270° |
| 2026-04-23 22:22 | 39.85198 | -104.69003 | 5355 ft | 21 kts | 268° |
| 2026-04-23 22:22 | 39.85198 | -104.69211 | 5347 ft | 25 kts | 271° |
| 2026-04-23 22:22 | 39.85201 | -104.69436 | 5338 ft | 22 kts | 270° |
| 2026-04-23 22:22 | 39.85202 | -104.69507 | 5333 ft | 0 kts | 270° |
| 2026-04-23 22:23 | 39.85202 | -104.69533 | 5336 ft | 7 kts | 270° |
| 2026-04-23 22:24 | 39.85206 | -104.69629 | 5335 ft | 11 kts | 284° |
| 2026-04-23 22:24 | 39.85248 | -104.69658 | 5335 ft | 4 kts | 358° |
| 2026-04-23 22:24 | 39.85251 | -104.69658 | 5335 ft | 0 kts | 358° |
| 2026-04-23 22:24 | 39.85292 | -104.69660 | 5336 ft | 28 kts | 359° |
| 2026-04-23 22:25 | 39.85701 | -104.69654 | 5341 ft | 87 kts | 0° |
| 2026-04-23 22:25 | 39.86485 | -104.69649 | 5332 ft | 134 kts | 0° |
| 2026-04-23 22:25 | 39.87535 | -104.69634 | 5335 ft | 166 kts | 0° |
| 2026-04-23 22:25 | 39.88774 | -104.69615 | 5508 ft | 185 kts | 360° |
| 2026-04-23 22:26 | 39.90088 | -104.69597 | 6017 ft | 193 kts | 358° |
| 2026-04-23 22:26 | 39.91423 | -104.69585 | 6482 ft | 185 kts | 356° |
| 2026-04-23 22:26 | 39.92779 | -104.69538 | 6674 ft | 211 kts | 357° |
| 2026-04-23 22:26 | 39.94284 | -104.69478 | 7004 ft | 225 kts | 357° |
| 2026-04-23 22:27 | 39.95866 | -104.69457 | 7425 ft | 222 kts | 356° |
| 2026-04-23 22:27 | 39.97377 | -104.69480 | 7672 ft | 219 kts | 353° |
| 2026-04-23 22:27 | 39.98966 | -104.69560 | 7838 ft | 240 kts | 353° |
| 2026-04-23 22:27 | 40.00721 | -104.69708 | 8188 ft | 262 kts | 344° |
| 2026-04-23 22:28 | 40.02401 | -104.70737 | 8685 ft | 274 kts | 316° |
| 2026-04-23 22:28 | 40.03532 | -104.72718 | 9503 ft | 276 kts | 290° |
| 2026-04-23 22:28 | 40.03836 | -104.75152 | 10402 ft | 275 kts | 264° |
| 2026-04-23 22:28 | 40.03257 | -104.77531 | 11275 ft | 281 kts | 239° |
| 2026-04-23 22:29 | 40.01893 | -104.79420 | 11986 ft | 298 kts | 217° |
| 2026-04-23 22:29 | 39.99902 | -104.80537 | 12316 ft | 328 kts | 195° |
| 2026-04-23 22:29 | 39.97575 | -104.81059 | 12749 ft | 347 kts | 192° |
| 2026-04-23 22:29 | 39.95197 | -104.81662 | 13636 ft | 349 kts | 196° |
| 2026-04-23 22:30 | 39.92857 | -104.82505 | 14445 ft | 351 kts | 200° |
| 2026-04-23 22:30 | 39.90543 | -104.83548 | 15228 ft | 353 kts | 203° |
| 2026-04-23 22:30 | 39.89019 | -104.84306 | 15722 ft | 355 kts | 204° |
| 2026-04-23 22:30 | 39.86721 | -104.85501 | 16488 ft | 357 kts | 204° |
| 2026-04-23 22:31 | 39.84407 | -104.86726 | 17225 ft | 361 kts | 205° |
| 2026-04-23 22:31 | 39.82076 | -104.87963 | 17950 ft | 364 kts | 205° |
| 2026-04-23 22:31 | 39.79790 | -104.89387 | 18598 ft | 364 kts | 216° |
| 2026-04-23 22:31 | 39.77925 | -104.91584 | 19230 ft | 363 kts | 233° |
| 2026-04-23 22:32 | 39.76669 | -104.94406 | 19882 ft | 362 kts | 250° |
| 2026-04-23 22:32 | 39.75940 | -104.97555 | 20524 ft | 365 kts | 254° |
| 2026-04-23 22:32 | 39.75250 | -105.00740 | 21172 ft | 368 kts | 254° |
| 2026-04-23 22:32 | 39.74438 | -105.03898 | 21804 ft | 370 kts | 248° |
| 2026-04-23 22:33 | 39.73426 | -105.06992 | 22412 ft | 374 kts | 247° |
| 2026-04-23 22:33 | 39.72402 | -105.10111 | 22742 ft | 377 kts | 247° |
| 2026-04-23 22:33 | 39.71375 | -105.13248 | 22825 ft | 378 kts | 247° |
| 2026-04-23 22:33 | 39.70371 | -105.16314 | 23127 ft | 381 kts | 247° |
| 2026-04-23 22:35 | 39.69901 | -105.17748 | 23413 ft | 379 kts | 247° |
| 2026-04-23 22:35 | 39.69563 | -105.18780 | 23545 ft | 374 kts | 247° |
| 2026-04-23 22:35 | 39.69078 | -105.20258 | 23565 ft | 371 kts | 247° |
| 2026-04-23 22:36 | 39.68613 | -105.21673 | 23547 ft | 372 kts | 247° |
| 2026-04-23 22:36 | 39.67588 | -105.24796 | 23679 ft | 381 kts | 247° |
| 2026-04-23 22:36 | 39.66542 | -105.27975 | 24186 ft | 383 kts | 247° |
| 2026-04-23 22:37 | 39.65496 | -105.31154 | 24757 ft | 384 kts | 247° |
| 2026-04-23 22:37 | 39.64445 | -105.34342 | 25281 ft | 386 kts | 247° |
| 2026-04-23 22:37 | 39.63384 | -105.37555 | 25776 ft | 388 kts | 247° |
| 2026-04-23 22:37 | 39.62322 | -105.40772 | 26327 ft | 388 kts | 248° |
| 2026-04-23 22:38 | 39.61258 | -105.43996 | 26842 ft | 390 kts | 248° |
| 2026-04-23 22:38 | 39.60186 | -105.47242 | 27322 ft | 392 kts | 248° |
| 2026-04-23 22:38 | 39.59110 | -105.50496 | 27803 ft | 394 kts | 248° |
| 2026-04-23 22:38 | 39.58024 | -105.53764 | 28233 ft | 396 kts | 247° |
| 2026-04-23 22:39 | 39.56932 | -105.57038 | 28693 ft | 397 kts | 247° |
| 2026-04-23 22:39 | 39.55834 | -105.60327 | 29123 ft | 398 kts | 248° |
| 2026-04-23 22:39 | 39.54812 | -105.63672 | 29534 ft | 400 kts | 251° |
| 2026-04-23 22:39 | 39.53881 | -105.67070 | 29958 ft | 401 kts | 251° |
| 2026-04-23 22:40 | 39.52940 | -105.70484 | 30340 ft | 403 kts | 251° |
| 2026-04-23 22:40 | 39.51995 | -105.73896 | 30732 ft | 403 kts | 251° |
| 2026-04-23 22:40 | 39.50099 | -105.80725 | 31635 ft | 400 kts | 251° |
| 2026-04-23 22:41 | 39.49160 | -105.84101 | 32187 ft | 397 kts | 251° |
| 2026-04-23 22:41 | 39.48240 | -105.87403 | 32664 ft | 394 kts | 251° |
| 2026-04-23 22:41 | 39.47314 | -105.90727 | 33181 ft | 391 kts | 251° |
| 2026-04-23 22:41 | 39.46385 | -105.94058 | 33726 ft | 387 kts | 251° |
| 2026-04-23 22:42 | 39.45484 | -105.97282 | 34148 ft | 385 kts | 251° |
| 2026-04-23 22:42 | 39.44573 | -106.00538 | 34458 ft | 385 kts | 251° |
| 2026-04-23 22:42 | 39.43660 | -106.03798 | 34784 ft | 385 kts | 251° |
| 2026-04-23 22:42 | 39.42748 | -106.07052 | 35093 ft | 384 kts | 251° |
| 2026-04-23 22:43 | 39.41836 | -106.10298 | 35376 ft | 384 kts | 251° |
| 2026-04-23 22:43 | 39.40923 | -106.13544 | 35640 ft | 385 kts | 251° |
| 2026-04-23 22:43 | 39.40007 | -106.16799 | 35913 ft | 385 kts | 251° |
| 2026-04-23 22:43 | 39.39091 | -106.20047 | 36212 ft | 384 kts | 251° |
| 2026-04-23 22:44 | 39.38175 | -106.23293 | 36475 ft | 384 kts | 251° |
| 2026-04-23 22:44 | 39.37257 | -106.26539 | 36654 ft | 385 kts | 251° |
| 2026-04-23 22:44 | 39.36338 | -106.29785 | 36943 ft | 384 kts | 251° |
| 2026-04-23 22:44 | 39.35407 | -106.33070 | 37214 ft | 384 kts | 251° |
| 2026-04-23 22:45 | 39.34502 | -106.36258 | 37452 ft | 383 kts | 251° |
| 2026-04-23 22:45 | 39.33583 | -106.39494 | 37644 ft | 384 kts | 251° |
| 2026-04-23 22:45 | 39.32665 | -106.42722 | 37874 ft | 382 kts | 251° |
| 2026-04-23 22:45 | 39.31749 | -106.45935 | 38017 ft | 382 kts | 251° |
| 2026-04-23 22:46 | 39.30831 | -106.49143 | 38011 ft | 381 kts | 251° |
| 2026-04-23 22:46 | 39.29003 | -106.55547 | 37967 ft | 381 kts | 251° |
| 2026-04-23 22:47 | 39.27158 | -106.61994 | 37938 ft | 385 kts | 251° |
| 2026-04-23 22:47 | 39.25246 | -106.68408 | 37956 ft | 380 kts | 248° |
| 2026-04-23 22:48 | 39.22769 | -106.74431 | 37987 ft | 383 kts | 241° |
| 2026-04-23 22:48 | 39.19661 | -106.80060 | 37989 ft | 385 kts | 237° |
| 2026-04-23 22:49 | 39.16451 | -106.85598 | 38003 ft | 387 kts | 237° |
| 2026-04-23 22:49 | 39.13245 | -106.91149 | 37982 ft | 381 kts | 236° |
| 2026-04-23 22:50 | 39.10063 | -106.96644 | 37960 ft | 384 kts | 237° |
| 2026-04-23 22:50 | 39.06881 | -107.02136 | 37929 ft | 381 kts | 237° |
| 2026-04-23 22:51 | 39.03708 | -107.07595 | 37898 ft | 381 kts | 237° |
| 2026-04-23 22:51 | 39.00536 | -107.13044 | 37880 ft | 379 kts | 237° |
| 2026-04-23 22:52 | 38.97385 | -107.18440 | 37855 ft | 379 kts | 237° |
| 2026-04-23 22:52 | 38.94226 | -107.23840 | 37866 ft | 375 kts | 237° |
| 2026-04-23 22:53 | 38.91082 | -107.29214 | 37857 ft | 377 kts | 237° |
| 2026-04-23 22:53 | 38.87937 | -107.34578 | 37847 ft | 375 kts | 237° |
| 2026-04-23 22:54 | 38.84807 | -107.39906 | 37863 ft | 375 kts | 237° |
| 2026-04-23 22:54 | 38.81668 | -107.45242 | 37854 ft | 374 kts | 237° |
| 2026-04-23 22:55 | 38.78558 | -107.50520 | 37860 ft | 374 kts | 237° |
| 2026-04-23 22:55 | 38.75429 | -107.55814 | 37852 ft | 373 kts | 237° |
| 2026-04-23 22:56 | 38.72302 | -107.61108 | 37878 ft | 371 kts | 237° |
| 2026-04-23 22:56 | 38.69181 | -107.66382 | 37906 ft | 372 kts | 237° |
| 2026-04-23 22:57 | 38.66061 | -107.71644 | 37930 ft | 371 kts | 237° |
| 2026-04-23 22:57 | 38.62936 | -107.76905 | 37952 ft | 372 kts | 237° |
| 2026-04-23 22:58 | 38.59800 | -107.82177 | 37974 ft | 372 kts | 237° |
| 2026-04-23 22:58 | 38.56660 | -107.87444 | 37979 ft | 373 kts | 237° |
| 2026-04-23 22:59 | 38.53516 | -107.92711 | 37978 ft | 373 kts | 237° |
| 2026-04-23 22:59 | 38.50365 | -107.97981 | 37975 ft | 374 kts | 237° |
| 2026-04-23 23:00 | 38.47205 | -108.03256 | 37963 ft | 373 kts | 237° |
| 2026-04-23 23:00 | 38.44049 | -108.08518 | 37952 ft | 374 kts | 237° |
| 2026-04-23 23:01 | 38.40891 | -108.13773 | 37930 ft | 373 kts | 237° |
| 2026-04-23 23:01 | 38.37740 | -108.19008 | 37919 ft | 372 kts | 237° |
| 2026-04-23 23:02 | 38.34606 | -108.24205 | 37897 ft | 369 kts | 237° |
| 2026-04-23 23:02 | 38.31474 | -108.29395 | 37894 ft | 369 kts | 237° |
| 2026-04-23 23:03 | 38.28353 | -108.34557 | 37891 ft | 368 kts | 237° |
| 2026-04-23 23:03 | 38.25256 | -108.39670 | 37889 ft | 367 kts | 237° |
| 2026-04-23 23:04 | 38.22138 | -108.44811 | 37890 ft | 366 kts | 237° |
| 2026-04-23 23:04 | 38.19030 | -108.49924 | 37877 ft | 365 kts | 237° |
| 2026-04-23 23:05 | 38.15927 | -108.55023 | 37891 ft | 366 kts | 237° |
| 2026-04-23 23:05 | 38.12807 | -108.60144 | 37892 ft | 367 kts | 236° |
| 2026-04-23 23:06 | 38.09677 | -108.65271 | 37888 ft | 368 kts | 236° |
| 2026-04-23 23:06 | 38.06541 | -108.70399 | 37893 ft | 368 kts | 236° |
| 2026-04-23 23:07 | 38.03410 | -108.75511 | 37896 ft | 366 kts | 236° |
| 2026-04-23 23:07 | 38.00277 | -108.80620 | 37900 ft | 368 kts | 236° |
| 2026-04-23 23:08 | 37.97133 | -108.85736 | 37902 ft | 367 kts | 237° |
| 2026-04-23 23:08 | 37.93992 | -108.90843 | 37912 ft | 369 kts | 236° |
| 2026-04-23 23:09 | 37.90836 | -108.95964 | 37915 ft | 368 kts | 236° |
| 2026-04-23 23:09 | 37.87692 | -109.01056 | 37914 ft | 366 kts | 237° |
| 2026-04-23 23:10 | 37.85067 | -109.05303 | 37894 ft | 365 kts | 237° |
| 2026-04-23 23:10 | 37.81430 | -109.11180 | 37915 ft | 367 kts | 237° |
| 2026-04-23 23:11 | 37.78266 | -109.16285 | 37914 ft | 369 kts | 237° |
| 2026-04-23 23:11 | 37.75104 | -109.21374 | 37941 ft | 369 kts | 237° |
| 2026-04-23 23:12 | 37.71933 | -109.26473 | 37946 ft | 369 kts | 237° |
| 2026-04-23 23:12 | 37.68761 | -109.31562 | 37965 ft | 368 kts | 237° |
| 2026-04-23 23:13 | 37.65588 | -109.36648 | 37980 ft | 369 kts | 237° |
| 2026-04-23 23:13 | 37.62409 | -109.41736 | 37994 ft | 369 kts | 237° |
| 2026-04-23 23:14 | 37.59231 | -109.46811 | 37988 ft | 369 kts | 237° |
| 2026-04-23 23:14 | 37.56047 | -109.51892 | 37995 ft | 369 kts | 237° |
| 2026-04-23 23:15 | 37.52860 | -109.56968 | 37990 ft | 369 kts | 237° |
| 2026-04-23 23:15 | 37.49676 | -109.62031 | 37976 ft | 369 kts | 237° |
| 2026-04-23 23:16 | 37.46480 | -109.67108 | 37948 ft | 370 kts | 237° |
| 2026-04-23 23:16 | 37.43307 | -109.72138 | 37929 ft | 369 kts | 237° |
| 2026-04-23 23:17 | 37.40635 | -109.76368 | 37909 ft | 369 kts | 237° |
| 2026-04-23 23:17 | 37.36906 | -109.82264 | 37893 ft | 370 kts | 237° |
| 2026-04-23 23:18 | 37.34218 | -109.86504 | 37879 ft | 370 kts | 237° |
| 2026-04-23 23:18 | 37.31006 | -109.91571 | 37878 ft | 372 kts | 237° |
| 2026-04-23 23:19 | 37.27782 | -109.96643 | 37876 ft | 371 kts | 237° |
| 2026-04-23 23:19 | 37.24581 | -110.01674 | 37869 ft | 372 kts | 237° |
| 2026-04-23 23:20 | 37.21356 | -110.06735 | 37874 ft | 371 kts | 237° |
| 2026-04-23 23:20 | 37.18119 | -110.11807 | 37890 ft | 373 kts | 237° |
| 2026-04-23 23:21 | 37.14874 | -110.16883 | 37866 ft | 372 kts | 237° |
| 2026-04-23 23:21 | 37.11642 | -110.21931 | 37865 ft | 372 kts | 237° |
| 2026-04-23 23:22 | 37.08403 | -110.26985 | 37868 ft | 373 kts | 237° |
| 2026-04-23 23:22 | 37.05158 | -110.32037 | 37866 ft | 372 kts | 237° |
| 2026-04-23 23:23 | 37.01911 | -110.37086 | 37872 ft | 373 kts | 237° |
| 2026-04-23 23:23 | 36.98659 | -110.42135 | 37881 ft | 373 kts | 237° |
| 2026-04-23 23:24 | 36.95404 | -110.47182 | 37879 ft | 373 kts | 237° |
| 2026-04-23 23:24 | 36.92142 | -110.52231 | 37882 ft | 374 kts | 237° |
| 2026-04-23 23:25 | 36.88874 | -110.57282 | 37882 ft | 375 kts | 237° |
| 2026-04-23 23:25 | 36.85603 | -110.62329 | 37883 ft | 373 kts | 237° |
| 2026-04-23 23:26 | 36.82356 | -110.67332 | 37891 ft | 374 kts | 237° |
| 2026-04-23 23:26 | 36.79088 | -110.72360 | 37892 ft | 373 kts | 237° |
| 2026-04-23 23:27 | 36.75814 | -110.77391 | 37883 ft | 374 kts | 237° |
| 2026-04-23 23:27 | 36.72536 | -110.82419 | 37885 ft | 374 kts | 237° |
| 2026-04-23 23:28 | 36.69257 | -110.87442 | 37879 ft | 373 kts | 237° |
| 2026-04-23 23:28 | 36.65978 | -110.92457 | 37869 ft | 373 kts | 237° |
| 2026-04-23 23:29 | 36.62699 | -110.97465 | 37865 ft | 373 kts | 237° |
| 2026-04-23 23:29 | 36.59415 | -111.02473 | 37865 ft | 373 kts | 237° |
| 2026-04-23 23:30 | 36.56128 | -111.07478 | 37869 ft | 374 kts | 237° |
| 2026-04-23 23:30 | 36.52836 | -111.12484 | 37860 ft | 374 kts | 237° |
| 2026-04-23 23:31 | 36.49543 | -111.17481 | 37856 ft | 374 kts | 237° |
| 2026-04-23 23:31 | 36.46242 | -111.22486 | 37861 ft | 374 kts | 237° |
| 2026-04-23 23:32 | 36.42936 | -111.27491 | 37857 ft | 375 kts | 237° |
| 2026-04-23 23:32 | 36.39621 | -111.32500 | 37855 ft | 375 kts | 237° |
| 2026-04-23 23:33 | 36.36302 | -111.37509 | 37849 ft | 376 kts | 237° |
| 2026-04-23 23:33 | 36.32977 | -111.42520 | 37847 ft | 377 kts | 237° |
| 2026-04-23 23:34 | 36.29644 | -111.47536 | 37846 ft | 377 kts | 237° |
| 2026-04-23 23:34 | 36.26302 | -111.52557 | 37847 ft | 377 kts | 237° |
| 2026-04-23 23:35 | 36.22954 | -111.57581 | 37849 ft | 379 kts | 237° |
| 2026-04-23 23:35 | 36.19595 | -111.62614 | 37857 ft | 379 kts | 237° |
| 2026-04-23 23:36 | 36.16225 | -111.67668 | 37862 ft | 381 kts | 237° |
| 2026-04-23 23:36 | 36.12875 | -111.72678 | 37875 ft | 381 kts | 237° |
| 2026-04-23 23:37 | 36.09502 | -111.77736 | 37897 ft | 380 kts | 238° |
| 2026-04-23 23:37 | 36.07977 | -111.80385 | 38031 ft | 377 kts | 243° |
| 2026-04-23 23:37 | 36.06655 | -111.83193 | 37929 ft | 376 kts | 248° |
| 2026-04-23 23:38 | 36.04588 | -111.89088 | 37981 ft | 376 kts | 252° |
| 2026-04-23 23:38 | 36.02686 | -111.95095 | 38009 ft | 373 kts | 252° |
| 2026-04-23 23:39 | 36.00786 | -112.01040 | 38042 ft | 374 kts | 252° |
| 2026-04-23 23:39 | 35.98863 | -112.07041 | 38063 ft | 375 kts | 251° |
| 2026-04-23 23:40 | 35.96942 | -112.13018 | 38059 ft | 375 kts | 251° |
| 2026-04-23 23:40 | 35.95016 | -112.19000 | 38063 ft | 375 kts | 251° |
| 2026-04-23 23:41 | 35.93086 | -112.24982 | 38060 ft | 375 kts | 251° |
| 2026-04-23 23:41 | 35.91152 | -112.30962 | 38050 ft | 376 kts | 251° |
| 2026-04-23 23:42 | 35.89213 | -112.36949 | 38012 ft | 376 kts | 251° |
| 2026-04-23 23:42 | 35.87268 | -112.42941 | 37989 ft | 376 kts | 251° |
| 2026-04-23 23:43 | 35.85319 | -112.48936 | 37953 ft | 377 kts | 251° |
| 2026-04-23 23:43 | 35.83366 | -112.54929 | 37932 ft | 377 kts | 251° |
| 2026-04-23 23:44 | 35.81408 | -112.60922 | 37920 ft | 377 kts | 251° |
| 2026-04-23 23:44 | 35.79446 | -112.66918 | 37920 ft | 377 kts | 251° |
| 2026-04-23 23:45 | 35.77480 | -112.72914 | 37912 ft | 377 kts | 251° |
| 2026-04-23 23:45 | 35.75512 | -112.78906 | 37913 ft | 377 kts | 251° |
| 2026-04-23 23:46 | 35.73542 | -112.84890 | 37915 ft | 377 kts | 251° |
| 2026-04-23 23:46 | 35.71573 | -112.90859 | 37899 ft | 373 kts | 251° |
| 2026-04-23 23:47 | 35.69611 | -112.96796 | 37913 ft | 378 kts | 251° |
| 2026-04-23 23:47 | 35.67631 | -113.02782 | 37910 ft | 378 kts | 251° |
| 2026-04-23 23:48 | 35.65647 | -113.08760 | 37908 ft | 377 kts | 251° |
| 2026-04-23 23:48 | 35.63659 | -113.14734 | 37905 ft | 378 kts | 251° |
| 2026-04-23 23:49 | 35.60675 | -113.23690 | 37894 ft | 377 kts | 251° |
| 2026-04-23 23:49 | 35.58682 | -113.29649 | 37889 ft | 377 kts | 251° |
| 2026-04-23 23:50 | 35.56692 | -113.35590 | 37882 ft | 376 kts | 251° |
| 2026-04-23 23:50 | 35.54712 | -113.41497 | 37874 ft | 376 kts | 251° |
| 2026-04-23 23:51 | 35.52717 | -113.47432 | 37876 ft | 376 kts | 250° |
| 2026-04-23 23:51 | 35.50719 | -113.53363 | 37868 ft | 377 kts | 250° |
| 2026-04-23 23:52 | 35.48713 | -113.59309 | 37867 ft | 377 kts | 250° |
| 2026-04-23 23:52 | 35.46704 | -113.65251 | 37888 ft | 377 kts | 250° |
| 2026-04-23 23:53 | 35.44690 | -113.71196 | 37908 ft | 378 kts | 250° |
| 2026-04-23 23:53 | 35.42669 | -113.77149 | 37933 ft | 379 kts | 250° |
| 2026-04-23 23:54 | 35.40640 | -113.83114 | 37957 ft | 379 kts | 250° |
| 2026-04-23 23:54 | 35.38605 | -113.89087 | 37972 ft | 380 kts | 250° |
| 2026-04-23 23:55 | 35.36564 | -113.95067 | 37998 ft | 380 kts | 250° |
| 2026-04-23 23:55 | 35.34524 | -114.01027 | 37986 ft | 379 kts | 250° |
| 2026-04-23 23:56 | 35.32485 | -114.06977 | 37967 ft | 379 kts | 250° |
| 2026-04-23 23:56 | 35.30439 | -114.12934 | 37953 ft | 379 kts | 250° |
| 2026-04-23 23:57 | 35.28397 | -114.18871 | 37945 ft | 379 kts | 250° |
| 2026-04-23 23:57 | 35.26349 | -114.24811 | 37924 ft | 379 kts | 250° |
| 2026-04-23 23:58 | 35.24300 | -114.30743 | 37886 ft | 378 kts | 250° |
| 2026-04-23 23:58 | 35.22250 | -114.36668 | 37870 ft | 378 kts | 250° |
| 2026-04-23 23:59 | 35.20197 | -114.42591 | 37884 ft | 378 kts | 250° |
| 2026-04-23 23:59 | 35.18138 | -114.48516 | 37877 ft | 379 kts | 250° |
| 2026-04-24 00:00 | 35.16076 | -114.54442 | 37882 ft | 379 kts | 250° |
| 2026-04-24 00:00 | 35.14022 | -114.60331 | 37885 ft | 379 kts | 250° |
| 2026-04-24 00:01 | 35.11961 | -114.66252 | 37885 ft | 379 kts | 250° |
| 2026-04-24 00:01 | 35.09905 | -114.72177 | 37875 ft | 379 kts | 249° |
| 2026-04-24 00:02 | 35.07848 | -114.78088 | 37874 ft | 378 kts | 249° |
| 2026-04-24 00:02 | 35.05788 | -114.83997 | 37874 ft | 379 kts | 249° |
| 2026-04-24 00:03 | 35.03712 | -114.89909 | 37880 ft | 379 kts | 248° |
| 2026-04-24 00:03 | 35.01290 | -114.95646 | 37890 ft | 381 kts | 245° |
| 2026-04-24 00:04 | 34.99213 | -115.00436 | 37897 ft | 382 kts | 245° |
| 2026-04-24 00:04 | 34.96749 | -115.06122 | 37911 ft | 382 kts | 245° |
| 2026-04-24 00:05 | 34.94262 | -115.11852 | 37917 ft | 383 kts | 245° |
| 2026-04-24 00:05 | 34.91770 | -115.17582 | 37929 ft | 383 kts | 245° |
| 2026-04-24 00:06 | 34.89271 | -115.23317 | 37926 ft | 382 kts | 245° |
| 2026-04-24 00:06 | 34.86775 | -115.29037 | 37930 ft | 382 kts | 245° |
| 2026-04-24 00:07 | 34.84278 | -115.34749 | 37931 ft | 382 kts | 245° |
| 2026-04-24 00:07 | 34.81777 | -115.40460 | 37940 ft | 382 kts | 245° |
| 2026-04-24 00:08 | 34.79289 | -115.46177 | 37941 ft | 382 kts | 247° |
| 2026-04-24 00:08 | 34.77114 | -115.52054 | 37949 ft | 381 kts | 249° |
| 2026-04-24 00:09 | 34.74954 | -115.57945 | 37939 ft | 381 kts | 249° |
| 2026-04-24 00:09 | 34.72786 | -115.63831 | 37948 ft | 382 kts | 249° |
| 2026-04-24 00:10 | 34.70614 | -115.69716 | 37955 ft | 382 kts | 248° |
| 2026-04-24 00:10 | 34.68436 | -115.75608 | 37965 ft | 382 kts | 248° |
| 2026-04-24 00:11 | 34.66257 | -115.81491 | 37967 ft | 382 kts | 248° |
| 2026-04-24 00:11 | 34.64072 | -115.87377 | 37971 ft | 382 kts | 248° |
| 2026-04-24 00:12 | 34.61894 | -115.93258 | 37969 ft | 382 kts | 249° |
| 2026-04-24 00:12 | 34.59729 | -115.99143 | 37974 ft | 382 kts | 248° |
| 2026-04-24 00:13 | 34.57560 | -116.05025 | 37985 ft | 381 kts | 248° |
| 2026-04-24 00:13 | 34.55394 | -116.10883 | 37973 ft | 380 kts | 248° |
| 2026-04-24 00:14 | 34.54314 | -116.13796 | 37696 ft | 377 kts | 248° |
| 2026-04-24 00:14 | 34.53241 | -116.16692 | 37048 ft | 378 kts | 248° |
| 2026-04-24 00:14 | 34.52157 | -116.19613 | 36249 ft | 381 kts | 248° |
| 2026-04-24 00:14 | 34.51066 | -116.22553 | 35434 ft | 384 kts | 248° |
| 2026-04-24 00:15 | 34.49964 | -116.25520 | 34660 ft | 387 kts | 248° |
| 2026-04-24 00:15 | 34.48853 | -116.28507 | 33883 ft | 390 kts | 248° |
| 2026-04-24 00:15 | 34.47732 | -116.31515 | 32975 ft | 393 kts | 248° |
| 2026-04-24 00:15 | 34.46600 | -116.34551 | 32041 ft | 397 kts | 248° |
| 2026-04-24 00:16 | 34.45455 | -116.37621 | 31085 ft | 402 kts | 248° |
| 2026-04-24 00:16 | 34.44297 | -116.40722 | 30168 ft | 406 kts | 248° |
| 2026-04-24 00:16 | 34.43130 | -116.43841 | 29399 ft | 404 kts | 248° |
| 2026-04-24 00:16 | 34.41977 | -116.46919 | 28716 ft | 400 kts | 248° |
| 2026-04-24 00:17 | 34.40814 | -116.49958 | 28058 ft | 396 kts | 246° |
| 2026-04-24 00:17 | 34.39595 | -116.52929 | 27384 ft | 393 kts | 246° |
| 2026-04-24 00:17 | 34.38364 | -116.55866 | 26726 ft | 389 kts | 246° |
| 2026-04-24 00:17 | 34.37144 | -116.58777 | 26090 ft | 386 kts | 246° |
| 2026-04-24 00:18 | 34.35957 | -116.61627 | 25478 ft | 383 kts | 246° |
| 2026-04-24 00:18 | 34.34753 | -116.64532 | 24861 ft | 380 kts | 246° |
| 2026-04-24 00:18 | 34.33583 | -116.67358 | 24557 ft | 369 kts | 246° |
| 2026-04-24 00:18 | 34.32470 | -116.70072 | 24148 ft | 362 kts | 246° |
| 2026-04-24 00:19 | 34.31373 | -116.72805 | 23590 ft | 360 kts | 247° |
| 2026-04-24 00:19 | 34.30288 | -116.75524 | 22996 ft | 358 kts | 247° |
| 2026-04-24 00:19 | 34.29210 | -116.78219 | 22393 ft | 355 kts | 247° |
| 2026-04-24 00:19 | 34.28136 | -116.80894 | 21807 ft | 351 kts | 247° |
| 2026-04-24 00:20 | 34.27071 | -116.83539 | 21226 ft | 348 kts | 247° |
| 2026-04-24 00:20 | 34.26015 | -116.86157 | 20683 ft | 345 kts | 247° |
| 2026-04-24 00:20 | 34.24968 | -116.88751 | 20134 ft | 343 kts | 247° |
| 2026-04-24 00:20 | 34.23926 | -116.91331 | 19605 ft | 340 kts | 247° |
| 2026-04-24 00:21 | 34.22892 | -116.93890 | 19100 ft | 338 kts | 247° |
| 2026-04-24 00:21 | 34.21863 | -116.96432 | 18586 ft | 335 kts | 247° |
| 2026-04-24 00:21 | 34.20926 | -116.98986 | 18070 ft | 331 kts | 252° |
| 2026-04-24 00:21 | 34.20207 | -117.01623 | 17492 ft | 330 kts | 255° |
| 2026-04-24 00:22 | 34.19503 | -117.04258 | 16824 ft | 329 kts | 254° |
| 2026-04-24 00:22 | 34.18797 | -117.06875 | 16294 ft | 327 kts | 254° |
| 2026-04-24 00:22 | 34.18089 | -117.09485 | 15658 ft | 327 kts | 254° |
| 2026-04-24 00:22 | 34.17383 | -117.12093 | 15146 ft | 326 kts | 253° |
| 2026-04-24 00:23 | 34.16678 | -117.14693 | 14638 ft | 325 kts | 253° |
| 2026-04-24 00:23 | 34.15973 | -117.17282 | 14127 ft | 324 kts | 253° |
| 2026-04-24 00:23 | 34.15268 | -117.19851 | 13931 ft | 321 kts | 253° |
| 2026-04-24 00:23 | 34.14560 | -117.22426 | 13879 ft | 325 kts | 253° |
| 2026-04-24 00:24 | 34.13846 | -117.25017 | 13875 ft | 324 kts | 253° |
| 2026-04-24 00:24 | 34.13135 | -117.27592 | 13876 ft | 324 kts | 253° |
| 2026-04-24 00:24 | 34.12424 | -117.30171 | 13877 ft | 324 kts | 253° |
| 2026-04-24 00:24 | 34.11712 | -117.32747 | 13878 ft | 324 kts | 253° |
| 2026-04-24 00:25 | 34.11005 | -117.35309 | 13879 ft | 332 kts | 253° |
| 2026-04-24 00:25 | 34.10270 | -117.37979 | 13875 ft | 336 kts | 253° |
| 2026-04-24 00:25 | 34.09580 | -117.40659 | 13877 ft | 334 kts | 255° |
| 2026-04-24 00:25 | 34.08919 | -117.43345 | 13878 ft | 334 kts | 255° |
| 2026-04-24 00:26 | 34.08261 | -117.46031 | 13885 ft | 334 kts | 255° |
| 2026-04-24 00:26 | 34.07595 | -117.48723 | 13885 ft | 335 kts | 255° |
| 2026-04-24 00:26 | 34.06932 | -117.51409 | 13887 ft | 334 kts | 255° |
| 2026-04-24 00:26 | 34.06286 | -117.54087 | 13762 ft | 332 kts | 255° |
| 2026-04-24 00:27 | 34.05642 | -117.56759 | 13318 ft | 331 kts | 255° |
| 2026-04-24 00:27 | 34.05004 | -117.59423 | 12720 ft | 331 kts | 255° |
| 2026-04-24 00:27 | 34.04386 | -117.62090 | 12154 ft | 329 kts | 257° |
| 2026-04-24 00:27 | 34.03852 | -117.64766 | 11571 ft | 328 kts | 258° |
| 2026-04-24 00:28 | 34.03350 | -117.67441 | 11113 ft | 323 kts | 258° |
| 2026-04-24 00:28 | 34.02864 | -117.70020 | 10984 ft | 308 kts | 258° |
| 2026-04-24 00:28 | 34.02393 | -117.72479 | 10870 ft | 294 kts | 258° |
| 2026-04-24 00:28 | 34.01935 | -117.74829 | 10758 ft | 281 kts | 258° |
| 2026-04-24 00:29 | 34.01511 | -117.77068 | 10646 ft | 267 kts | 261° |
| 2026-04-24 00:29 | 34.01287 | -117.79208 | 10486 ft | 250 kts | 265° |
| 2026-04-24 00:29 | 34.01097 | -117.81237 | 10255 ft | 239 kts | 264° |
| 2026-04-24 00:29 | 34.00908 | -117.83196 | 10020 ft | 232 kts | 264° |
| 2026-04-24 00:30 | 34.00721 | -117.85119 | 9627 ft | 231 kts | 264° |
| 2026-04-24 00:30 | 34.00531 | -117.87058 | 9107 ft | 235 kts | 264° |
| 2026-04-24 00:30 | 34.00338 | -117.89027 | 8603 ft | 238 kts | 264° |
| 2026-04-24 00:30 | 34.00142 | -117.91025 | 8103 ft | 242 kts | 264° |
| 2026-04-24 00:31 | 33.99943 | -117.93054 | 7607 ft | 245 kts | 264° |
| 2026-04-24 00:31 | 33.99742 | -117.95109 | 7127 ft | 248 kts | 264° |
| 2026-04-24 00:31 | 33.99538 | -117.97186 | 6648 ft | 251 kts | 264° |
| 2026-04-24 00:31 | 33.99365 | -117.99293 | 6168 ft | 254 kts | 265° |
| 2026-04-24 00:32 | 33.99163 | -118.01404 | 5855 ft | 248 kts | 264° |
| 2026-04-24 00:32 | 33.98962 | -118.03379 | 5903 ft | 230 kts | 264° |
| 2026-04-24 00:32 | 33.98765 | -118.05319 | 5824 ft | 232 kts | 264° |
| 2026-04-24 00:32 | 33.98572 | -118.07210 | 5656 ft | 224 kts | 264° |
| 2026-04-24 00:33 | 33.98385 | -118.09045 | 5453 ft | 218 kts | 264° |
| 2026-04-24 00:33 | 33.98202 | -118.10840 | 5203 ft | 213 kts | 264° |
| 2026-04-24 00:33 | 33.98025 | -118.12574 | 4949 ft | 205 kts | 264° |
| 2026-04-24 00:33 | 33.97855 | -118.14251 | 4677 ft | 198 kts | 264° |
| 2026-04-24 00:34 | 33.97689 | -118.15874 | 4398 ft | 194 kts | 263° |
| 2026-04-24 00:34 | 33.97525 | -118.17484 | 4084 ft | 191 kts | 263° |
| 2026-04-24 00:34 | 33.97370 | -118.19002 | 4044 ft | 177 kts | 263° |
| 2026-04-24 00:34 | 33.97218 | -118.20494 | 3803 ft | 179 kts | 263° |
| 2026-04-24 00:35 | 33.97065 | -118.21996 | 3344 ft | 184 kts | 263° |
| 2026-04-24 00:35 | 33.96907 | -118.23543 | 2890 ft | 187 kts | 263° |
| 2026-04-24 00:35 | 33.96753 | -118.25065 | 2595 ft | 178 kts | 263° |
| 2026-04-24 00:35 | 33.96606 | -118.26492 | 2372 ft | 164 kts | 262° |
| 2026-04-24 00:36 | 33.96475 | -118.27781 | 2173 ft | 147 kts | 263° |
| 2026-04-24 00:36 | 33.96354 | -118.28965 | 1992 ft | 143 kts | 263° |
| 2026-04-24 00:36 | 33.96229 | -118.30203 | 1796 ft | 152 kts | 263° |
| 2026-04-24 00:36 | 33.96104 | -118.31419 | 1583 ft | 138 kts | 263° |
| 2026-04-24 00:37 | 33.95995 | -118.32492 | 1413 ft | 122 kts | 264° |
| 2026-04-24 00:37 | 33.95890 | -118.33517 | 1245 ft | 125 kts | 263° |
| 2026-04-24 00:37 | 33.95786 | -118.34538 | 1089 ft | 121 kts | 263° |
| 2026-04-24 00:37 | 33.95681 | -118.35561 | 919 ft | 125 kts | 263° |
| 2026-04-24 00:38 | 33.95574 | -118.36610 | 748 ft | 125 kts | 264° |
| 2026-04-24 00:38 | 33.95468 | -118.37675 | 587 ft | 133 kts | 263° |
| 2026-04-24 00:38 | 33.95363 | -118.38752 | 411 ft | 123 kts | 263° |
| 2026-04-24 00:38 | 33.95262 | -118.39735 | 222 ft | 113 kts | 263° |
| 2026-04-24 00:39 | 33.95173 | -118.40610 | 131 ft | 100 kts | 261° |
| 2026-04-24 00:39 | 33.95099 | -118.41287 | 125 ft | 53 kts | 263° |
| 2026-04-24 00:39 | 33.95075 | -118.41508 | 122 ft | 22 kts | 262° |
| 2026-04-24 00:39 | 33.95047 | -118.41690 | 122 ft | 18 kts | 255° |
| 2026-04-24 00:40 | 33.94998 | -118.41825 | 124 ft | 13 kts | 230° |
| 2026-04-24 00:40 | 33.94970 | -118.41874 | 123 ft | 0 kts | 233° |
| 2026-04-24 00:40 | 33.94967 | -118.41878 | 123 ft | 4 kts | 233° |
| 2026-04-24 00:40 | 33.94925 | -118.41948 | 124 ft | 16 kts | 233° |
| 2026-04-24 00:41 | 33.94843 | -118.42081 | 123 ft | 24 kts | 232° |
| 2026-04-24 00:41 | 33.94751 | -118.42221 | 123 ft | 16 kts | 233° |
| 2026-04-24 00:41 | 33.94712 | -118.42285 | 122 ft | 0 kts | 232° |
| 2026-04-24 00:41 | 33.94712 | -118.42286 | 122 ft | 0 kts | 232° |
| 2026-04-24 00:42 | 33.94703 | -118.42292 | 125 ft | 5 kts | 206° |
| 2026-04-24 00:42 | 33.94682 | -118.42263 | 123 ft | 3 kts | 92° |
| 2026-04-24 00:42 | 33.94682 | -118.42259 | 123 ft | 0 kts | 89° |
| 2026-04-24 00:42 | 33.94682 | -118.42254 | 123 ft | 4 kts | 86° |
| 2026-04-24 00:43 | 33.94685 | -118.42234 | 124 ft | 0 kts | 81° |
| 2026-04-24 00:43 | 33.94685 | -118.42233 | 124 ft | 2 kts | 81° |
| 2026-04-24 00:43 | 33.94687 | -118.42220 | 124 ft | 3 kts | 81° |
| 2026-04-24 00:43 | 33.94693 | -118.42138 | 125 ft | 14 kts | 85° |
| 2026-04-24 00:44 | 33.94706 | -118.42020 | 125 ft | 19 kts | 82° |
| 2026-04-24 00:44 | 33.94722 | -118.41862 | 125 ft | 21 kts | 83° |
| 2026-04-24 00:44 | 33.94741 | -118.41673 | 125 ft | 20 kts | 83° |
| 2026-04-24 00:44 | 33.94756 | -118.41537 | 124 ft | 17 kts | 83° |
| 2026-04-24 00:45 | 33.94784 | -118.41364 | 125 ft | 19 kts | 76° |
| 2026-04-24 00:45 | 33.94807 | -118.41161 | 123 ft | 30 kts | 83° |
| 2026-04-24 00:45 | 33.94829 | -118.40974 | 123 ft | 17 kts | 86° |
| 2026-04-24 00:45 | 33.94814 | -118.40897 | 122 ft | 12 kts | 135° |
| 2026-04-24 00:46 | 33.94743 | -118.40871 | 123 ft | 1 kts | 159° |
| 2026-04-24 00:46 | 33.94726 | -118.40854 | 122 ft | 5 kts | 137° |
| 2026-04-24 00:46 | 33.94705 | -118.40832 | 121 ft | 2 kts | 140° |
| 2026-04-24 00:46 | 33.94705 | -118.40831 | 121 ft | 0 kts | 139° |